Terminal Aerodrome Forecast
Issued by NWS St Louis, MO

Home | Current Version | Previous Version | Text Only | Print | Product List | Glossary On
Versions: 1 2 3 4 5 6 7 8 9 10 11 12 13 14 15 16 17 18 19 20 21 22 23 24 25 26 27 28
000
FTUS43 KLSX 151500 AAA
TAFSTL
TAF AMD
KSTL 151500Z 1515/1618 19007KT P6SM VCSH BKN050
     FM151600 22008KT P6SM BKN050
     FM152000 27009KT P6SM VCTS SCT015 BKN040CB
     FM152200 30011KT P6SM VCSH SCT012 OVC020
     FM160700 35009KT P6SM SCT030=

USA.gov is the U.S. government's official web portal to all federal, state and local government web resources and services.